createdAt,value
2022-08-28T00:04:10.510Z,27.60
2022-08-28T00:06:41.445Z,27.60
2022-08-28T00:09:22.947Z,27.60
2022-08-28T00:11:58.688Z,27.60
2022-08-28T00:14:29.624Z,27.70
2022-08-28T00:40:06.296Z,27.80
2022-08-28T00:42:39.583Z,28.00
2022-08-28T00:45:11.257Z,28.00
2022-08-28T00:47:46.618Z,28.00
2022-08-28T00:50:19.355Z,28.00
2022-08-28T00:52:55.134Z,28.10
2022-08-28T00:55:28.037Z,28.10
2022-08-28T00:58:19.716Z,28.20
2022-08-28T01:00:51.166Z,28.20
2022-08-28T01:03:25.159Z,28.30
2022-08-28T01:05:56.694Z,28.30
2022-08-28T01:08:36.065Z,28.30
2022-08-28T01:11:08.779Z,28.40
2022-08-28T01:13:44.500Z,28.40
2022-08-28T01:16:16.906Z,28.40
2022-08-28T01:18:50.586Z,28.50
2022-08-28T01:21:22.181Z,28.50
2022-08-28T01:23:55.611Z,28.60
2022-08-28T01:26:58.840Z,28.60
2022-08-28T01:29:01.639Z,28.60
2022-08-28T01:31:34.521Z,28.70
2022-08-28T01:34:06.024Z,28.70
2022-08-28T01:36:37.581Z,28.80
2022-08-28T01:39:16.854Z,28.80
2022-08-28T01:41:47.083Z,28.90
2022-08-28T01:51:26.414Z,29.00
2022-08-28T01:53:59.476Z,29.10
2022-08-28T01:56:36.459Z,29.10
2022-08-28T01:59:11.524Z,29.10
2022-08-28T02:01:44.829Z,29.10
2022-08-28T02:04:18.448Z,29.00
2022-08-28T02:06:52.121Z,29.00
2022-08-28T02:09:33.897Z,29.00
2022-08-28T02:12:05.247Z,29.00
2022-08-28T02:15:10.538Z,29.00
2022-08-28T02:17:41.583Z,29.00
2022-08-28T02:20:16.981Z,29.00
2022-08-28T02:22:58.897Z,29.00
2022-08-28T02:25:30.788Z,29.00
2022-08-28T02:28:03.943Z,29.00
2022-08-28T02:30:34.951Z,29.00
2022-08-28T02:33:06.222Z,29.10
2022-08-28T02:35:37.377Z,29.10
2022-08-28T02:38:08.022Z,29.10
2022-08-28T02:40:39.513Z,29.20
2022-08-28T02:43:10.765Z,29.20
2022-08-28T02:45:41.830Z,29.20
2022-08-28T02:48:17.038Z,29.30
2022-08-28T02:50:50.329Z,29.30
2022-08-28T02:53:25.707Z,29.40
2022-08-28T02:56:04.241Z,29.40
2022-08-28T02:58:41.063Z,29.50
2022-08-28T03:01:10.746Z,29.50
2022-08-28T03:03:42.655Z,29.60
2022-08-28T03:06:14.885Z,29.70
2022-08-28T03:08:46.841Z,29.80
2022-08-28T03:11:17.958Z,29.90
2022-08-28T03:13:49.202Z,30.00
2022-08-28T03:16:21.406Z,30.00
2022-08-28T03:18:52.292Z,30.00
2022-08-28T03:21:23.214Z,30.00
2022-08-28T03:23:54.038Z,30.00
2022-08-28T03:26:25.850Z,29.90
2022-08-28T03:28:59.789Z,29.90
2022-08-28T03:31:34.010Z,29.90
2022-08-28T03:34:05.931Z,29.90
2022-08-28T03:36:36.944Z,29.90
2022-08-28T03:39:09.051Z,29.90
2022-08-28T03:41:42.565Z,29.90
2022-08-28T03:44:13.597Z,29.90
2022-08-28T03:46:44.332Z,29.90
2022-08-28T03:49:15.923Z,29.90
2022-08-28T03:51:47.344Z,29.90
2022-08-28T03:54:18.385Z,30.00
2022-08-28T03:56:52.175Z,30.20
2022-08-28T03:59:22.891Z,30.50
2022-08-28T04:01:56.706Z,30.80
2022-08-28T04:04:27.635Z,31.00
2022-08-28T04:07:03.252Z,31.40
2022-08-28T04:09:33.267Z,31.50
2022-08-28T04:12:04.455Z,31.70
2022-08-28T04:14:37.684Z,31.90
2022-08-28T04:17:08.672Z,32.10
2022-08-28T04:19:41.264Z,32.30
2022-08-28T04:22:12.327Z,32.50
2022-08-28T04:24:48.023Z,32.60
2022-08-28T04:27:23.479Z,32.90
2022-08-28T04:29:53.232Z,32.90
2022-08-28T04:32:24.828Z,33.00
2022-08-28T04:34:56.120Z,33.20
2022-08-28T04:37:27.992Z,33.30
2022-08-28T04:39:58.690Z,33.20
2022-08-28T04:42:30.060Z,33.10
2022-08-28T04:45:01.367Z,32.90
2022-08-28T04:47:32.277Z,32.60
2022-08-28T04:50:03.813Z,32.40
2022-08-28T04:52:34.625Z,32.50
2022-08-28T04:55:09.367Z,32.60
2022-08-28T04:57:40.254Z,32.80
2022-08-28T05:00:13.061Z,33.00
2022-08-28T05:02:43.905Z,33.10
2022-08-28T05:05:14.964Z,33.20
2022-08-28T05:07:46.109Z,33.10
2022-08-28T05:10:17.028Z,33.00
2022-08-28T05:12:48.293Z,32.90
2022-08-28T05:15:19.315Z,32.70
2022-08-28T05:17:51.126Z,32.60
2022-08-28T05:20:22.073Z,32.50
2022-08-28T05:22:52.976Z,32.40
2022-08-28T05:25:23.937Z,32.40
2022-08-28T05:27:55.075Z,32.40
2022-08-28T05:30:26.122Z,32.40
2022-08-28T05:32:57.239Z,32.50
2022-08-28T05:35:31.276Z,32.60
2022-08-28T05:38:01.994Z,32.80
2022-08-28T05:40:33.484Z,32.90
2022-08-28T05:43:04.447Z,33.00
2022-08-28T05:45:37.324Z,33.10
2022-08-28T05:48:08.302Z,33.20
2022-08-28T05:50:47.191Z,33.40
2022-08-28T05:53:13.504Z,33.40
2022-08-28T05:55:44.704Z,33.50
2022-08-28T05:58:18.310Z,33.60
2022-08-28T06:00:49.104Z,33.60
2022-08-28T06:03:20.228Z,33.80
2022-08-28T06:05:53.494Z,33.80
2022-08-28T06:08:24.512Z,33.90
2022-08-28T06:10:55.444Z,34.00
2022-08-28T06:13:26.945Z,34.10
2022-08-28T06:15:58.634Z,34.20
2022-08-28T06:18:30.093Z,34.20
2022-08-28T06:21:05.974Z,34.20
2022-08-28T06:23:37.352Z,34.10
2022-08-28T06:26:09.428Z,34.20
2022-08-28T06:28:40.388Z,34.30
2022-08-28T06:31:28.748Z,34.30
2022-08-28T06:33:43.651Z,34.40
2022-08-28T06:36:14.715Z,34.40
2022-08-28T06:38:46.866Z,34.30
2022-08-28T06:41:17.871Z,34.20
2022-08-28T06:43:48.978Z,34.00
2022-08-28T06:46:20.234Z,33.80
2022-08-28T06:48:51.434Z,33.60
2022-08-28T06:51:23.149Z,33.40
2022-08-28T06:53:54.866Z,33.30
2022-08-28T06:56:27.161Z,33.10
2022-08-28T06:59:00.107Z,33.00
2022-08-28T07:01:33.726Z,32.90
2022-08-28T07:04:07.401Z,32.80
2022-08-28T07:06:40.968Z,32.70
2022-08-28T07:09:13.442Z,32.60
2022-08-28T07:11:47.847Z,32.60
2022-08-28T07:14:18.762Z,32.60
2022-08-28T07:16:49.615Z,32.70
2022-08-28T07:19:21.795Z,32.80
2022-08-28T07:21:52.654Z,32.80
2022-08-28T07:24:24.593Z,32.80
2022-08-28T07:26:55.631Z,32.90
2022-08-28T07:29:26.371Z,32.90
2022-08-28T07:31:59.096Z,32.80
2022-08-28T07:34:30.283Z,32.80
2022-08-28T07:37:02.732Z,32.80
2022-08-28T07:39:34.169Z,32.80
2022-08-28T07:42:06.042Z,32.90
2022-08-28T07:44:38.609Z,32.90
2022-08-28T07:47:11.905Z,32.90
2022-08-28T07:49:43.712Z,33.00
2022-08-28T07:52:15.932Z,33.00
2022-08-28T07:54:47.054Z,33.10
2022-08-28T07:57:18.895Z,33.10
2022-08-28T07:59:51.413Z,33.20
2022-08-28T08:02:22.328Z,33.30
2022-08-28T08:04:53.696Z,33.30
2022-08-28T08:07:24.547Z,33.30
2022-08-28T08:09:55.874Z,33.30
2022-08-28T08:12:29.449Z,33.30
2022-08-28T08:15:00.254Z,33.30
2022-08-28T08:17:31.396Z,33.20
2022-08-28T08:20:02.402Z,33.30
2022-08-28T08:22:52.527Z,33.30
2022-08-28T08:25:23.641Z,33.30
2022-08-28T08:27:54.782Z,33.40
2022-08-28T08:30:25.614Z,33.40
2022-08-28T08:32:57.805Z,33.40
2022-08-28T08:35:28.903Z,33.40
2022-08-28T08:38:02.875Z,33.40
2022-08-28T08:40:32.614Z,33.40
2022-08-28T08:43:05.638Z,33.40
2022-08-28T08:45:38.644Z,33.40
2022-08-28T08:48:10.962Z,33.30
2022-08-28T08:50:43.619Z,33.30
2022-08-28T08:53:19.795Z,33.30
2022-08-28T08:55:52.128Z,33.30
2022-08-28T08:58:25.822Z,33.30
2022-08-28T09:00:57.554Z,33.30
2022-08-28T09:03:30.782Z,33.30
2022-08-28T09:06:04.368Z,33.20
2022-08-28T09:08:38.070Z,33.20
2022-08-28T09:11:13.104Z,33.20
2022-08-28T09:13:47.120Z,33.10
2022-08-28T09:16:20.442Z,33.10
2022-08-28T09:18:52.393Z,33.10
2022-08-28T09:21:29.279Z,33.00
2022-08-28T09:24:00.388Z,33.00
2022-08-28T09:26:31.968Z,33.00
2022-08-28T09:29:06.884Z,33.00
2022-08-28T09:31:40.112Z,33.00
2022-08-28T09:34:13.780Z,33.00
2022-08-28T09:36:44.726Z,33.00
2022-08-28T09:39:17.206Z,33.00
2022-08-28T09:41:50.488Z,32.90
2022-08-28T09:44:21.300Z,32.90
2022-08-28T09:46:54.031Z,32.80
2022-08-28T09:49:27.345Z,32.80
2022-08-28T09:52:01.454Z,32.80
2022-08-28T09:54:34.619Z,32.80
2022-08-28T09:57:06.261Z,32.80
2022-08-28T09:59:37.610Z,32.80
2022-08-28T10:02:12.225Z,32.70
2022-08-28T10:04:45.798Z,32.70
2022-08-28T10:07:17.504Z,32.60
2022-08-28T10:09:50.663Z,32.60
2022-08-28T10:12:24.374Z,32.60
2022-08-28T10:14:57.678Z,32.60
2022-08-28T10:17:31.638Z,32.50
2022-08-28T10:20:05.247Z,32.50
2022-08-28T10:22:37.256Z,32.50
2022-08-28T10:25:08.848Z,32.40
2022-08-28T10:27:42.285Z,32.40
2022-08-28T10:30:17.592Z,32.40
2022-08-28T10:32:53.033Z,32.30
2022-08-28T10:35:26.750Z,32.30
2022-08-28T10:38:04.274Z,32.30
2022-08-28T10:40:40.615Z,32.30
2022-08-28T10:43:14.089Z,32.30
2022-08-28T10:45:45.440Z,32.20
2022-08-28T10:48:20.280Z,32.20
2022-08-28T10:50:56.012Z,32.20
2022-08-28T10:53:32.166Z,32.30
2022-08-28T10:56:05.418Z,32.20
2022-08-28T10:58:39.005Z,32.20
2022-08-28T11:01:12.827Z,32.20
2022-08-28T11:03:49.239Z,32.10
2022-08-28T11:06:20.167Z,32.10
2022-08-28T11:08:53.502Z,32.10
2022-08-28T11:11:27.036Z,32.10
2022-08-28T11:14:00.926Z,32.00
2022-08-28T11:16:32.577Z,32.00
2022-08-28T11:19:05.891Z,32.00
2022-08-28T11:24:35.563Z,31.90
2022-08-28T11:27:13.726Z,31.90
2022-08-28T11:30:22.992Z,31.90
2022-08-28T11:32:31.544Z,31.80
2022-08-28T11:35:08.276Z,31.90
2022-08-28T11:37:45.156Z,31.90
2022-08-28T11:40:19.812Z,31.80
2022-08-28T11:42:54.355Z,31.80
2022-08-28T11:45:36.515Z,31.80
2022-08-28T11:48:08.792Z,31.80
2022-08-28T11:50:43.390Z,31.80
2022-08-28T11:55:53.827Z,31.70
2022-08-28T12:02:05.382Z,31.70
2022-08-28T12:08:28.488Z,31.70
2022-08-28T12:11:02.598Z,31.60
2022-08-28T12:14:21.456Z,31.60
2022-08-28T12:16:59.123Z,31.60
2022-08-28T12:19:41.153Z,31.60
2022-08-28T12:34:26.705Z,31.40
2022-08-28T12:37:08.640Z,31.50
2022-08-28T12:59:10.011Z,31.20
2022-08-28T13:04:44.232Z,30.90
2022-08-28T13:07:40.639Z,30.80
2022-08-28T13:12:55.359Z,30.70
2022-08-28T13:15:24.425Z,30.70
2022-08-28T13:17:56.184Z,30.60
2022-08-28T13:23:51.679Z,30.50
2022-08-28T13:26:24.901Z,30.40
2022-08-28T13:28:57.719Z,30.40
2022-08-28T13:31:29.398Z,30.40
2022-08-28T13:34:02.632Z,30.40
2022-08-28T13:36:39.054Z,30.50
2022-08-28T13:39:10.991Z,30.50
2022-08-28T13:41:42.134Z,30.50
2022-08-28T13:44:15.505Z,30.50
2022-08-28T13:46:46.553Z,30.40
2022-08-28T13:49:18.462Z,30.40
2022-08-28T13:51:49.558Z,30.40
2022-08-28T13:54:21.931Z,30.40
2022-08-28T13:56:53.728Z,30.40
2022-08-28T13:59:32.071Z,30.40
2022-08-28T14:02:06.776Z,30.40
2022-08-28T14:04:38.162Z,30.40
2022-08-28T14:07:09.386Z,30.40
2022-08-28T14:09:43.087Z,30.40
2022-08-28T14:12:31.475Z,30.40
2022-08-28T14:14:58.647Z,30.40
2022-08-28T14:17:29.563Z,30.30
2022-08-28T14:20:03.192Z,30.30
2022-08-28T14:22:35.674Z,30.40
2022-08-28T14:25:10.798Z,30.30
2022-08-28T14:27:42.637Z,30.30
2022-08-28T14:30:18.012Z,30.30
2022-08-28T14:33:12.193Z,30.30
2022-08-28T14:38:54.507Z,30.30
2022-08-28T14:41:29.565Z,30.30
2022-08-28T14:44:01.572Z,30.30
2022-08-28T14:46:41.294Z,30.20
2022-08-28T14:49:13.704Z,30.20
2022-08-28T14:54:47.626Z,30.20
2022-08-28T14:57:20.602Z,30.10
2022-08-28T14:59:51.372Z,30.10
2022-08-28T15:02:22.072Z,30.10
2022-08-28T15:04:57.132Z,30.10
2022-08-28T15:07:30.014Z,30.10
2022-08-28T15:10:05.205Z,30.10
2022-08-28T15:15:45.569Z,30.00
2022-08-28T15:24:13.482Z,30.00
2022-08-28T15:26:51.935Z,30.00
2022-08-28T15:29:23.254Z,30.00
2022-08-28T15:31:57.163Z,30.00
2022-08-28T15:34:35.347Z,29.90
2022-08-28T15:40:46.166Z,29.90
2022-08-28T15:43:17.215Z,29.90
2022-08-28T15:45:49.311Z,29.90
2022-08-28T15:48:22.770Z,29.90
2022-08-28T15:50:55.453Z,29.90
2022-08-28T16:00:20.970Z,29.90
2022-08-28T16:05:53.705Z,29.70
2022-08-28T16:08:24.463Z,29.70
2022-08-28T16:10:57.413Z,29.70
2022-08-28T16:13:28.670Z,29.70
2022-08-28T16:16:00.390Z,29.70
2022-08-28T16:18:36.055Z,29.70
2022-08-28T16:21:08.338Z,29.70
2022-08-28T16:24:04.447Z,29.80
2022-08-28T16:27:00.098Z,29.80
2022-08-28T16:30:15.818Z,29.70
2022-08-28T16:32:13.849Z,29.70
2022-08-28T16:34:45.276Z,29.60
2022-08-28T16:37:19.503Z,29.60
2022-08-28T16:39:49.267Z,29.50
2022-08-28T16:42:21.408Z,29.50
2022-08-28T16:45:07.818Z,29.60
2022-08-28T16:47:37.958Z,29.60
2022-08-28T16:50:13.613Z,29.60
2022-08-28T16:52:44.929Z,29.60
2022-08-28T16:55:20.404Z,29.50
2022-08-28T16:57:51.255Z,29.50
2022-08-28T17:00:22.440Z,29.50
2022-08-28T17:02:56.861Z,29.40
2022-08-28T17:05:27.799Z,29.40
2022-08-28T17:07:58.940Z,29.40
2022-08-28T17:10:39.433Z,29.40
2022-08-28T17:13:16.586Z,29.40
2022-08-28T17:15:47.470Z,29.40
2022-08-28T17:18:18.527Z,29.40
2022-08-28T17:20:50.839Z,29.40
2022-08-28T17:23:21.808Z,29.40
2022-08-28T17:25:52.820Z,29.40
2022-08-28T17:28:32.518Z,29.40
2022-08-28T17:31:14.254Z,29.40
2022-08-28T17:33:47.227Z,29.30
2022-08-28T17:36:30.740Z,29.30
2022-08-28T17:39:13.190Z,29.30
2022-08-28T17:41:51.206Z,29.30
2022-08-28T17:44:29.302Z,29.30
2022-08-28T17:47:00.315Z,29.20
2022-08-28T17:49:35.892Z,29.20
2022-08-28T17:52:06.778Z,29.10
2022-08-28T17:54:39.300Z,29.20
2022-08-28T17:57:10.287Z,29.10
2022-08-28T17:59:41.492Z,29.10
2022-08-28T18:02:13.081Z,29.10
2022-08-28T18:04:43.891Z,29.10
2022-08-28T18:07:18.198Z,29.10
2022-08-28T18:09:53.234Z,29.10
2022-08-28T18:12:24.071Z,29.10
2022-08-28T18:14:56.222Z,29.10
2022-08-28T18:17:30.952Z,29.10
2022-08-28T18:20:03.339Z,29.10
2022-08-28T18:22:35.575Z,29.10
2022-08-28T18:25:13.357Z,29.00
2022-08-28T18:27:45.688Z,29.10
2022-08-28T18:30:20.614Z,29.00
2022-08-28T18:33:04.360Z,29.00
2022-08-28T18:35:37.146Z,29.00
2022-08-28T18:38:10.885Z,29.00
2022-08-28T18:40:43.523Z,29.00
2022-08-28T18:43:15.097Z,29.00
2022-08-28T18:45:47.413Z,29.00
2022-08-28T18:48:19.724Z,29.00
2022-08-28T18:50:53.099Z,28.90
2022-08-28T18:53:25.379Z,28.90
2022-08-28T18:56:00.283Z,28.90
2022-08-28T18:58:31.499Z,28.90
2022-08-28T19:01:17.003Z,28.90
2022-08-28T19:03:36.506Z,28.90
2022-08-28T19:06:08.061Z,28.90
2022-08-28T19:08:39.140Z,28.90
2022-08-28T19:11:13.054Z,28.80
2022-08-28T19:13:44.901Z,28.80
2022-08-28T19:16:18.325Z,28.80
2022-08-28T19:18:52.956Z,28.80
2022-08-28T19:21:22.295Z,28.80
2022-08-28T19:23:55.925Z,28.80
2022-08-28T19:26:28.606Z,28.80
2022-08-28T19:28:59.551Z,28.80
2022-08-28T19:31:30.881Z,28.70
2022-08-28T19:34:03.663Z,28.70
2022-08-28T19:36:34.894Z,28.70
2022-08-28T19:39:06.551Z,28.70
2022-08-28T19:41:38.114Z,28.70
2022-08-28T19:44:09.491Z,28.70
2022-08-28T19:46:41.349Z,28.70
2022-08-28T19:49:12.088Z,28.70
2022-08-28T19:51:43.940Z,28.70
2022-08-28T19:54:16.195Z,28.80
2022-08-28T19:56:47.240Z,28.80
2022-08-28T19:59:18.158Z,28.70
2022-08-28T20:01:49.166Z,28.70
2022-08-28T20:04:20.038Z,28.70
2022-08-28T20:06:50.946Z,28.60
2022-08-28T20:09:21.827Z,28.60
2022-08-28T20:11:53.981Z,28.50
2022-08-28T20:14:25.232Z,28.60
2022-08-28T20:17:01.719Z,28.60
2022-08-28T20:19:32.756Z,28.60
2022-08-28T20:22:04.970Z,28.60
2022-08-28T20:24:36.219Z,28.60
2022-08-28T20:27:07.334Z,28.70
2022-08-28T20:29:40.245Z,28.70
2022-08-28T20:32:41.039Z,28.70
2022-08-28T20:35:16.901Z,28.70
2022-08-28T20:41:09.682Z,28.60
2022-08-28T20:43:44.626Z,28.50
2022-08-28T20:46:53.849Z,28.50
2022-08-28T20:49:39.305Z,28.50
2022-08-28T20:52:14.435Z,28.50
2022-08-28T20:55:11.590Z,28.40
2022-08-28T20:57:44.302Z,28.50
2022-08-28T21:00:15.635Z,28.50
2022-08-28T21:02:46.872Z,28.50
2022-08-28T21:05:17.597Z,28.40
2022-08-28T21:07:49.153Z,28.40
2022-08-28T21:10:20.218Z,28.30
2022-08-28T21:12:51.234Z,28.30
2022-08-28T21:15:22.127Z,28.30
2022-08-28T21:17:56.178Z,28.30
2022-08-28T21:20:30.973Z,28.30
2022-08-28T21:23:01.857Z,28.30
2022-08-28T21:25:32.792Z,28.30
2022-08-28T21:28:04.204Z,28.30
2022-08-28T21:30:35.577Z,28.30
2022-08-28T21:33:06.737Z,28.20
2022-08-28T21:35:37.673Z,28.20
2022-08-28T21:38:08.510Z,28.20
2022-08-28T21:40:39.607Z,28.20
2022-08-28T21:43:11.022Z,28.10
2022-08-28T21:45:42.971Z,28.20
2022-08-28T21:48:14.086Z,28.20
2022-08-28T21:50:46.585Z,28.10
2022-08-28T21:53:19.871Z,28.10
2022-08-28T21:55:52.227Z,28.10
2022-08-28T21:58:25.890Z,28.10
2022-08-28T22:00:58.805Z,28.10
2022-08-28T22:03:31.724Z,28.10
2022-08-28T22:06:02.735Z,28.00
2022-08-28T22:08:33.643Z,28.10
2022-08-28T22:11:04.549Z,28.10
2022-08-28T22:13:35.695Z,28.00
2022-08-28T22:16:07.958Z,28.00
2022-08-28T22:18:39.304Z,28.00
2022-08-28T22:21:13.929Z,28.10
2022-08-28T22:23:45.083Z,28.10
2022-08-28T22:26:18.477Z,28.10
2022-08-28T22:28:49.922Z,28.10
2022-08-28T22:31:20.967Z,28.10
2022-08-28T22:33:52.519Z,28.10
2022-08-28T22:36:24.496Z,28.10
2022-08-28T22:38:56.994Z,28.10
2022-08-28T22:41:29.249Z,28.10
2022-08-28T22:44:00.780Z,28.10
2022-08-28T22:46:32.240Z,28.10
2022-08-28T22:49:03.291Z,28.10
2022-08-28T22:51:36.208Z,28.00
2022-08-28T22:54:07.469Z,28.00
2022-08-28T22:56:38.383Z,28.00
2022-08-28T22:59:09.221Z,28.00
2022-08-28T23:01:42.271Z,27.90
2022-08-28T23:04:14.516Z,27.90
2022-08-28T23:06:45.805Z,27.90
2022-08-28T23:09:16.546Z,27.80
2022-08-28T23:11:47.196Z,27.80
2022-08-28T23:14:18.194Z,27.80
2022-08-28T23:16:49.255Z,27.80
2022-08-28T23:19:21.265Z,27.80
2022-08-28T23:21:52.914Z,27.90
2022-08-28T23:24:23.870Z,27.90
2022-08-28T23:26:54.739Z,28.00
2022-08-28T23:29:26.080Z,28.00
2022-08-28T23:31:56.865Z,28.00
2022-08-28T23:34:29.297Z,28.00
2022-08-28T23:37:00.148Z,28.10
2022-08-28T23:39:35.724Z,28.10
2022-08-28T23:42:06.931Z,28.10
2022-08-28T23:44:38.693Z,28.10
2022-08-28T23:47:09.534Z,28.10
2022-08-28T23:49:41.558Z,28.10
2022-08-28T23:52:12.962Z,28.10
2022-08-28T23:54:48.585Z,28.10
2022-08-28T23:57:42.394Z,28.10
